createdAt,value
2023-04-17T00:03:01.848Z,20.92
2023-04-17T00:18:03.534Z,20.02
2023-04-17T00:33:05.214Z,19.05
2023-04-17T00:48:07.763Z,21.08
2023-04-17T01:03:09.868Z,22.35
2023-04-17T01:18:12.634Z,21.42
2023-04-17T01:33:14.665Z,20.80
2023-04-17T01:48:16.386Z,22.75
2023-04-17T02:03:18.254Z,25.70
2023-04-17T02:18:20.238Z,24.25
2023-04-17T02:33:21.819Z,25.20
2023-04-17T02:48:24.569Z,23.40
2023-04-17T03:03:27.154Z,26.60
2023-04-17T03:18:29.043Z,22.25
2023-04-17T03:33:30.813Z,22.38
2023-04-17T03:48:33.414Z,21.17
2023-04-17T04:03:35.264Z,23.67
2023-04-17T04:18:38.263Z,24.75
2023-04-17T04:33:41.441Z,25.90
2023-04-17T04:48:43.229Z,24.35
2023-04-17T05:03:47.583Z,27.85
2023-04-17T05:18:56.082Z,24.38
2023-04-17T05:34:13.263Z,22.95
2023-04-17T05:49:15.796Z,20.17
2023-04-17T06:04:18.561Z,20.30
2023-04-17T06:19:24.009Z,19.88
2023-04-17T06:34:25.838Z,18.08
2023-04-17T06:49:27.809Z,13.82
2023-04-17T07:04:29.620Z,10.57
2023-04-17T07:19:31.257Z,8.73
2023-04-17T07:34:34.623Z,11.85
2023-04-17T07:49:36.352Z,17.08
2023-04-17T08:04:40.489Z,21.35
2023-04-17T08:19:42.154Z,15.70
2023-04-17T08:34:44.067Z,17.70
2023-04-17T08:49:46.296Z,13.80
2023-04-17T09:04:48.306Z,14.10
2023-04-17T09:19:50.083Z,13.73
2023-04-17T09:34:52.010Z,13.02
2023-04-17T09:49:53.677Z,11.23
2023-04-17T10:04:55.251Z,13.75
2023-04-17T10:19:56.833Z,10.57
2023-04-17T10:35:01.486Z,9.00
2023-04-17T10:50:04.085Z,7.38
2023-04-17T11:05:05.938Z,7.45
2023-04-17T11:20:08.076Z,10.10
2023-04-17T11:35:09.760Z,11.05
2023-04-17T11:50:11.469Z,9.73
2023-04-17T12:05:13.717Z,11.30
2023-04-17T12:20:15.514Z,9.00
2023-04-17T12:35:17.216Z,7.97
2023-04-17T12:50:18.809Z,19.65
2023-04-17T13:05:20.499Z,10.77
2023-04-17T13:20:22.087Z,10.50
2023-04-17T13:35:23.698Z,7.90
2023-04-17T13:50:25.266Z,8.52
2023-04-17T14:05:26.903Z,8.23
2023-04-17T14:20:29.064Z,7.72
2023-04-17T14:35:30.645Z,8.45
2023-04-17T14:50:32.223Z,5.70
2023-04-17T15:05:33.803Z,5.78
2023-04-17T15:20:38.649Z,5.55
2023-04-17T15:35:40.374Z,4.93
2023-04-17T15:50:41.957Z,5.70
2023-04-17T16:05:43.580Z,4.47
2023-04-17T16:20:45.801Z,3.92
2023-04-17T16:35:47.361Z,4.60
2023-04-17T16:50:49.078Z,4.93
2023-04-17T17:05:51.100Z,4.15
2023-04-17T17:20:56.126Z,3.72
2023-04-17T17:35:57.805Z,3.50
2023-04-17T17:50:59.567Z,3.65
2023-04-17T18:06:01.201Z,3.08
2023-04-17T18:21:03.145Z,3.70
2023-04-17T18:36:04.952Z,4.35
2023-04-17T18:51:06.537Z,4.95
2023-04-17T19:06:08.191Z,8.05
2023-04-17T19:21:09.802Z,7.25
2023-04-17T19:36:11.576Z,9.98
2023-04-17T19:51:13.179Z,11.43
2023-04-17T20:06:14.803Z,17.33
2023-04-17T20:21:16.454Z,19.23
2023-04-17T20:36:18.055Z,20.35
2023-04-17T20:51:19.681Z,23.73
2023-04-17T21:06:23.024Z,20.45
2023-04-17T21:21:24.635Z,20.83
2023-04-17T21:36:28.334Z,21.17
2023-04-17T21:51:29.966Z,19.08
2023-04-17T22:06:31.526Z,22.77
2023-04-17T22:21:33.113Z,23.13
2023-04-17T22:36:36.294Z,23.95
2023-04-17T22:51:37.873Z,23.10
2023-04-17T23:06:39.449Z,21.65
2023-04-17T23:21:41.154Z,18.85
2023-04-17T23:36:43.143Z,21.67
2023-04-17T23:51:45.083Z,22.10
